Time;durP1;ratioP1;P1;durP2;ratioP2;P2;SDS_P1;SDS_P2;PMS_P1;PMS_P2;Temp;Humidity;BMP_temperature;BMP_pressure;BME280_temperature;BME280_humidity;BME280_pressure;Samples;Min_cycle;Max_cycle;Signal;HPM_P1;HPM_P2
2022/01/31 00:01:58;;;;;;;9.13;3.40;;;;;;;;;;5012632;28;20549;-77
2022/01/31 00:04:25;;;;;;;10.68;4.13;;;;;;;;;;5013799;28;20216;-77
2022/01/31 00:06:54;;;;;;;14.38;4.57;;;;;;;;;;5011606;28;20192;-77
2022/01/31 00:09:23;;;;;;;10.15;4.05;;;;;;;;;;5012649;28;20196;-77
2022/01/31 00:11:57;;;;;;;11.30;3.47;;;;;;;;;;5015605;28;20223;-78
2022/01/31 00:14:37;;;;;;;9.05;3.70;;;;;;;;;;5021800;28;20207;-77
2022/01/31 00:17:05;;;;;;;12.43;4.53;;;;;;;;;;5032915;28;20668;-79
2022/01/31 00:19:32;;;;;;;9.57;4.25;;;;;;;;;;5005535;28;20192;-77
2022/01/31 00:22:00;;;;;;;10.75;3.30;;;;;;;;;;5011859;28;20196;-76
2022/01/31 00:24:27;;;;;;;7.55;3.33;;;;;;;;;;5014016;28;20228;-76
2022/01/31 00:26:55;;;;;;;11.07;3.72;;;;;;;;;;5013518;28;20204;-77
2022/01/31 00:29:22;;;;;;;12.13;3.60;;;;;;;;;;5013790;28;20287;-78
2022/01/31 00:31:49;;;;;;;9.80;3.60;;;;;;;;;;5014136;28;20223;-77
2022/01/31 00:34:16;;;;;;;8.00;3.40;;;;;;;;;;5018913;28;20697;-76
2022/01/31 00:36:43;;;;;;;13.23;3.70;;;;;;;;;;5019405;28;20202;-76
2022/01/31 00:39:12;;;;;;;5.10;3.30;;;;;;;;;;5032081;28;20211;-76
2022/01/31 00:41:39;;;;;;;6.30;3.00;;;;;;;;;;5032878;28;20196;-78
2022/01/31 00:44:17;;;;;;;5.68;3.00;;;;;;;;;;5031918;28;20219;-78
2022/01/31 00:46:50;;;;;;;10.95;3.30;;;;;;;;;;5032249;28;20286;-78
2022/01/31 00:49:27;;;;;;;12.95;3.67;;;;;;;;;;5018280;28;20201;-78
2022/01/31 00:51:54;;;;;;;16.20;3.53;;;;;;;;;;4994993;28;20223;-78
2022/01/31 00:54:23;;;;;;;4.28;2.75;;;;;;;;;;4998839;28;20228;-78
2022/01/31 00:56:50;;;;;;;11.82;3.90;;;;;;;;;;5018166;28;20226;-77
2022/01/31 00:59:17;;;;;;;7.38;3.10;;;;;;;;;;5017763;28;20188;-78
2022/01/31 01:01:44;;;;;;;9.73;3.35;;;;;;;;;;5012400;28;20192;-78
2022/01/31 01:04:12;;;;;;;6.75;3.30;;;;;;;;;;5011852;28;20239;-78
2022/01/31 01:06:39;;;;;;;6.82;2.80;;;;;;;;;;5011502;28;20223;-78
2022/01/31 01:09:07;;;;;;;12.98;3.50;;;;;;;;;;5013486;28;20192;-78
2022/01/31 01:11:36;;;;;;;10.95;4.05;;;;;;;;;;5000942;28;20219;-78
2022/01/31 01:14:03;;;;;;;6.63;3.47;;;;;;;;;;5009361;28;20216;-78
2022/01/31 01:16:30;;;;;;;6.25;3.13;;;;;;;;;;5022858;28;20661;-78
2022/01/31 01:18:57;;;;;;;7.32;3.88;;;;;;;;;;5003649;28;20196;-78
2022/01/31 01:21:24;;;;;;;7.20;3.10;;;;;;;;;;5007112;28;20197;-78
2022/01/31 01:23:51;;;;;;;10.02;3.88;;;;;;;;;;5009524;28;20207;-79
2022/01/31 01:26:19;;;;;;;9.05;2.97;;;;;;;;;;5012727;28;20544;-78
2022/01/31 01:28:48;;;;;;;8.38;2.95;;;;;;;;;;5008475;28;20223;-78
2022/01/31 01:31:15;;;;;;;9.73;3.50;;;;;;;;;;5017604;28;20218;-78
2022/01/31 01:33:42;;;;;;;10.55;3.35;;;;;;;;;;5012776;28;20200;-78
2022/01/31 01:36:09;;;;;;;10.65;3.35;;;;;;;;;;5012267;28;20605;-77
2022/01/31 01:38:37;;;;;;;8.20;3.47;;;;;;;;;;5009244;28;20932;-78
2022/01/31 01:41:04;;;;;;;10.40;3.50;;;;;;;;;;5012298;28;20287;-78
2022/01/31 01:43:32;;;;;;;15.65;4.10;;;;;;;;;;5008274;28;20198;-78
2022/01/31 01:46:01;;;;;;;6.57;3.17;;;;;;;;;;5012298;28;20709;-77
2022/01/31 01:48:28;;;;;;;11.10;3.60;;;;;;;;;;5011407;28;20638;-78
2022/01/31 01:50:56;;;;;;;7.55;3.08;;;;;;;;;;5014843;28;20599;-78
2022/01/31 01:53:24;;;;;;;15.95;3.25;;;;;;;;;;5015574;28;20710;-78
2022/01/31 01:55:53;;;;;;;7.57;3.00;;;;;;;;;;5023003;28;20293;-77
2022/01/31 01:58:20;;;;;;;8.98;3.78;;;;;;;;;;5011388;28;20200;-78
2022/01/31 02:00:51;;;;;;;10.45;3.10;;;;;;;;;;5011404;28;20195;-77
2022/01/31 02:03:20;;;;;;;8.25;2.95;;;;;;;;;;5011930;28;20200;-78
2022/01/31 02:05:47;;;;;;;7.15;3.47;;;;;;;;;;4993312;28;20220;-78
2022/01/31 02:08:16;;;;;;;8.20;3.40;;;;;;;;;;5003720;28;20212;-77
2022/01/31 02:10:43;;;;;;;6.70;2.38;;;;;;;;;;5014323;28;20227;-78
2022/01/31 02:13:11;;;;;;;9.90;3.10;;;;;;;;;;4997653;28;20196;-78
2022/01/31 02:15:39;;;;;;;14.20;3.20;;;;;;;;;;4990517;28;20311;-78
2022/01/31 02:18:06;;;;;;;5.85;3.28;;;;;;;;;;5011219;28;20203;-77
2022/01/31 02:20:38;;;;;;;15.38;3.35;;;;;;;;;;5011300;28;20231;-78
2022/01/31 02:23:08;;;;;;;10.05;3.25;;;;;;;;;;4991279;28;20196;-78
2022/01/31 02:25:35;;;;;;;10.60;2.97;;;;;;;;;;5012176;28;20231;-78
2022/01/31 02:28:02;;;;;;;4.45;2.97;;;;;;;;;;5017070;28;20191;-78
2022/01/31 02:30:29;;;;;;;5.78;3.15;;;;;;;;;;5013560;28;20188;-78
2022/01/31 02:32:56;;;;;;;7.53;2.83;;;;;;;;;;5011203;28;20192;-78
2022/01/31 02:35:23;;;;;;;8.23;2.90;;;;;;;;;;5011589;28;20220;-78
2022/01/31 02:37:52;;;;;;;3.50;2.75;;;;;;;;;;5010124;28;20211;-78
2022/01/31 02:40:19;;;;;;;5.38;2.83;;;;;;;;;;5011915;28;20646;-77
2022/01/31 02:42:46;;;;;;;9.25;2.97;;;;;;;;;;5010933;28;20211;-77
2022/01/31 02:45:13;;;;;;;10.63;3.13;;;;;;;;;;5012980;28;20226;-77
2022/01/31 02:47:49;;;;;;;13.43;3.25;;;;;;;;;;5012473;28;20574;-77
2022/01/31 02:50:16;;;;;;;7.00;2.50;;;;;;;;;;5014500;28;20206;-77
2022/01/31 02:52:47;;;;;;;8.63;2.05;;;;;;;;;;5020653;28;20223;-78
2022/01/31 02:55:16;;;;;;;7.35;2.40;;;;;;;;;;5012761;28;20694;-78
2022/01/31 02:57:43;;;;;;;8.07;2.63;;;;;;;;;;4989879;28;20200;-77
2022/01/31 03:00:11;;;;;;;11.60;3.58;;;;;;;;;;4991055;28;20216;-78
2022/01/31 03:02:39;;;;;;;9.38;2.80;;;;;;;;;;4991517;28;20200;-78
2022/01/31 03:05:06;;;;;;;19.90;3.58;;;;;;;;;;5002908;28;20581;-78
2022/01/31 03:07:34;;;;;;;9.68;2.95;;;;;;;;;;5016417;28;20200;-77
2022/01/31 03:10:01;;;;;;;9.02;2.22;;;;;;;;;;4999540;28;20250;-77
2022/01/31 03:12:30;;;;;;;9.32;3.15;;;;;;;;;;5020797;28;20227;-76
2022/01/31 03:14:57;;;;;;;12.25;2.72;;;;;;;;;;5018507;28;20215;-78
2022/01/31 03:17:24;;;;;;;13.57;2.42;;;;;;;;;;5009895;28;20195;-77
2022/01/31 03:19:54;;;;;;;8.65;2.50;;;;;;;;;;4994627;28;20200;-76
2022/01/31 03:22:23;;;;;;;11.73;3.10;;;;;;;;;;4994744;28;20296;-77
2022/01/31 03:24:50;;;;;;;8.65;2.70;;;;;;;;;;4993487;28;20777;-77
2022/01/31 03:27:17;;;;;;;5.03;2.25;;;;;;;;;;5013245;28;20561;-78
2022/01/31 03:29:46;;;;;;;10.23;4.38;;;;;;;;;;5020716;28;20192;-77
2022/01/31 03:32:13;;;;;;;6.43;2.30;;;;;;;;;;5030406;28;20223;-77
2022/01/31 03:34:40;;;;;;;8.50;2.75;;;;;;;;;;5033846;28;20214;-77
2022/01/31 03:37:07;;;;;;;5.63;2.10;;;;;;;;;;5033600;28;20290;-77
2022/01/31 03:39:35;;;;;;;4.38;2.70;;;;;;;;;;5022402;28;20211;-77
2022/01/31 03:42:02;;;;;;;6.15;2.35;;;;;;;;;;5013370;28;20210;-77
2022/01/31 03:44:30;;;;;;;3.17;2.08;;;;;;;;;;5014794;28;20224;-77
2022/01/31 03:46:59;;;;;;;4.00;2.20;;;;;;;;;;5020148;28;20203;-77
2022/01/31 03:49:26;;;;;;;5.60;2.22;;;;;;;;;;5033607;28;20325;-77
2022/01/31 03:51:53;;;;;;;3.58;2.03;;;;;;;;;;5033081;28;20223;-78
2022/01/31 03:54:20;;;;;;;6.35;2.33;;;;;;;;;;5034073;28;20585;-77
2022/01/31 03:56:48;;;;;;;3.05;1.70;;;;;;;;;;5026815;28;20196;-77
2022/01/31 03:59:15;;;;;;;3.95;2.42;;;;;;;;;;5014399;28;20590;-77
2022/01/31 04:01:42;;;;;;;3.80;2.30;;;;;;;;;;5016374;28;20204;-77
2022/01/31 04:04:11;;;;;;;3.65;1.75;;;;;;;;;;5015940;28;20220;-78
2022/01/31 04:06:38;;;;;;;9.15;2.25;;;;;;;;;;5017436;28;20596;-77
2022/01/31 04:09:06;;;;;;;6.47;1.98;;;;;;;;;;5019759;28;20622;-77
2022/01/31 04:11:33;;;;;;;3.35;2.35;;;;;;;;;;5012972;28;20700;-77
2022/01/31 04:14:00;;;;;;;4.53;2.00;;;;;;;;;;4993415;28;20243;-77
2022/01/31 04:16:28;;;;;;;3.53;2.13;;;;;;;;;;4994124;28;20564;-77
2022/01/31 04:18:55;;;;;;;6.80;2.72;;;;;;;;;;4994571;28;20197;-77
2022/01/31 04:21:23;;;;;;;3.40;2.35;;;;;;;;;;4993017;28;20208;-77
2022/01/31 04:23:51;;;;;;;8.30;2.63;;;;;;;;;;4996137;28;20203;-77
2022/01/31 04:26:19;;;;;;;3.03;2.20;;;;;;;;;;4995843;28;20623;-76
2022/01/31 04:28:49;;;;;;;9.18;2.70;;;;;;;;;;5011134;28;20200;-77
2022/01/31 04:31:37;;;;;;;4.07;2.65;;;;;;;;;;5018711;28;20222;-78
2022/01/31 04:34:04;;;;;;;3.75;2.30;;;;;;;;;;5031074;28;20703;-78
2022/01/31 04:36:32;;;;;;;4.95;2.63;;;;;;;;;;5032705;28;20645;-77
2022/01/31 04:39:00;;;;;;;6.13;2.50;;;;;;;;;;5033472;28;20200;-77
2022/01/31 04:41:27;;;;;;;4.20;2.90;;;;;;;;;;5008081;28;20205;-77
2022/01/31 04:43:57;;;;;;;5.43;2.88;;;;;;;;;;4997920;28;20207;-77
2022/01/31 04:46:25;;;;;;;5.18;2.80;;;;;;;;;;5015133;28;20287;-77
2022/01/31 04:48:52;;;;;;;6.63;3.75;;;;;;;;;;5013707;28;20192;-78
2022/01/31 04:51:19;;;;;;;6.38;3.05;;;;;;;;;;5014675;28;20207;-78
2022/01/31 04:53:48;;;;;;;7.75;3.78;;;;;;;;;;5018145;28;20195;-77
2022/01/31 04:56:15;;;;;;;8.50;3.17;;;;;;;;;;5012802;28;20694;-78
2022/01/31 04:58:42;;;;;;;5.85;3.60;;;;;;;;;;5012503;28;20660;-78
2022/01/31 05:01:09;;;;;;;4.50;2.45;;;;;;;;;;5010358;28;20290;-78
2022/01/31 05:03:37;;;;;;;8.65;3.70;;;;;;;;;;5013340;28;20679;-77
2022/01/31 05:06:05;;;;;;;4.93;2.50;;;;;;;;;;5005731;28;20192;-77
2022/01/31 05:08:34;;;;;;;4.88;2.90;;;;;;;;;;5014498;28;20224;-77
2022/01/31 05:11:07;;;;;;;12.32;3.50;;;;;;;;;;5015227;28;20223;-76
2022/01/31 05:13:36;;;;;;;5.22;2.72;;;;;;;;;;5015099;28;20258;-76
2022/01/31 05:16:04;;;;;;;7.00;3.60;;;;;;;;;;5005915;28;20658;-76
2022/01/31 05:18:32;;;;;;;6.68;3.58;;;;;;;;;;5000724;28;20279;-77
2022/01/31 05:21:00;;;;;;;7.65;3.25;;;;;;;;;;5012784;28;20188;-77
2022/01/31 05:23:27;;;;;;;7.40;3.38;;;;;;;;;;5010195;28;20232;-77
2022/01/31 05:25:55;;;;;;;4.20;3.50;;;;;;;;;;5013408;28;20223;-78
2022/01/31 05:28:23;;;;;;;9.00;3.75;;;;;;;;;;5015909;28;20523;-78
2022/01/31 05:30:51;;;;;;;7.97;3.30;;;;;;;;;;5021799;28;20222;-77
2022/01/31 05:33:18;;;;;;;10.32;3.60;;;;;;;;;;5032400;28;20319;-77
2022/01/31 05:35:45;;;;;;;10.68;3.97;;;;;;;;;;5033220;28;20215;-77
2022/01/31 05:38:15;;;;;;;7.32;3.50;;;;;;;;;;5016520;28;20191;-78
2022/01/31 05:40:42;;;;;;;9.63;3.75;;;;;;;;;;5013158;28;20195;-77
2022/01/31 05:43:09;;;;;;;11.57;3.70;;;;;;;;;;5013576;28;20208;-77
2022/01/31 05:45:38;;;;;;;7.25;3.40;;;;;;;;;;5015931;28;21625;-78
2022/01/31 05:48:05;;;;;;;9.65;3.65;;;;;;;;;;5019664;28;20206;-78
2022/01/31 05:50:33;;;;;;;6.47;3.42;;;;;;;;;;5034010;28;20608;-78
2022/01/31 05:53:00;;;;;;;10.63;3.67;;;;;;;;;;5034023;28;20238;-77
2022/01/31 05:55:27;;;;;;;6.15;3.42;;;;;;;;;;5032770;28;20231;-78
2022/01/31 05:57:54;;;;;;;7.07;3.50;;;;;;;;;;5015550;28;20881;-79
2022/01/31 06:00:21;;;;;;;6.80;3.40;;;;;;;;;;5006662;28;20560;-78
2022/01/31 06:02:52;;;;;;;10.50;3.50;;;;;;;;;;5017731;28;20195;-78
2022/01/31 06:05:19;;;;;;;6.78;3.50;;;;;;;;;;5017255;28;21668;-78
2022/01/31 06:07:46;;;;;;;9.73;4.30;;;;;;;;;;5029985;28;20215;-78
2022/01/31 06:10:14;;;;;;;7.10;2.97;;;;;;;;;;5021186;28;20188;-79
2022/01/31 06:12:42;;;;;;;14.75;3.97;;;;;;;;;;5011901;28;20231;-77
2022/01/31 06:15:09;;;;;;;6.45;3.20;;;;;;;;;;4996389;28;20279;-78
2022/01/31 06:17:36;;;;;;;7.25;3.20;;;;;;;;;;4994792;28;20262;-78
2022/01/31 06:20:05;;;;;;;12.52;3.40;;;;;;;;;;5011015;28;20210;-78
2022/01/31 06:22:32;;;;;;;12.23;4.32;;;;;;;;;;5015862;28;20196;-77
2022/01/31 06:25:00;;;;;;;8.38;3.05;;;;;;;;;;5009784;28;20222;-78
2022/01/31 06:27:27;;;;;;;6.80;2.75;;;;;;;;;;5011681;28;20200;-78
2022/01/31 06:29:54;;;;;;;10.27;2.75;;;;;;;;;;4998416;28;20196;-78
2022/01/31 06:32:25;;;;;;;8.05;2.80;;;;;;;;;;4991147;28;20220;-77
2022/01/31 06:34:53;;;;;;;14.45;3.00;;;;;;;;;;4997272;28;20697;-78
2022/01/31 06:37:21;;;;;;;8.80;3.30;;;;;;;;;;5005254;28;20197;-78
2022/01/31 06:39:48;;;;;;;7.20;2.90;;;;;;;;;;4994379;28;20192;-78
2022/01/31 06:42:16;;;;;;;4.78;2.50;;;;;;;;;;5012537;28;20435;-78
2022/01/31 06:44:43;;;;;;;6.65;3.00;;;;;;;;;;5016773;28;20303;-78
2022/01/31 06:47:10;;;;;;;10.70;3.15;;;;;;;;;;5019919;28;20192;-79
2022/01/31 06:49:37;;;;;;;19.20;3.90;;;;;;;;;;5009874;28;20199;-78
2022/01/31 06:52:05;;;;;;;9.38;3.20;;;;;;;;;;5008873;28;20231;-78
2022/01/31 06:54:33;;;;;;;8.18;3.55;;;;;;;;;;5005950;28;20727;-75
2022/01/31 06:57:01;;;;;;;12.38;3.75;;;;;;;;;;5008438;28;20693;-79
2022/01/31 06:59:28;;;;;;;15.10;3.95;;;;;;;;;;5012321;28;20189;-77
2022/01/31 07:01:56;;;;;;;9.38;3.83;;;;;;;;;;5012867;28;20278;-77
2022/01/31 07:04:23;;;;;;;8.93;3.05;;;;;;;;;;5016699;28;20796;-77
2022/01/31 07:06:50;;;;;;;7.82;2.83;;;;;;;;;;5011090;28;20197;-78
2022/01/31 07:09:17;;;;;;;9.23;2.72;;;;;;;;;;5008463;28;20214;-77
2022/01/31 07:11:48;;;;;;;8.75;3.42;;;;;;;;;;5005125;28;20200;-78
2022/01/31 07:14:30;;;;;;;7.20;4.00;;;;;;;;;;5011521;28;20226;-77
2022/01/31 07:16:57;;;;;;;11.55;3.22;;;;;;;;;;5008935;28;20203;-77
2022/01/31 07:19:27;;;;;;;6.80;3.60;;;;;;;;;;5003167;28;20207;-78
2022/01/31 07:21:54;;;;;;;12.07;3.65;;;;;;;;;;4998577;28;20192;-78
2022/01/31 07:24:25;;;;;;;12.27;3.45;;;;;;;;;;5011263;28;20216;-83
2022/01/31 07:26:54;;;;;;;12.80;4.25;;;;;;;;;;5014867;28;20791;-79
2022/01/31 07:29:21;;;;;;;10.30;3.85;;;;;;;;;;5005046;28;20196;-77
2022/01/31 07:31:49;;;;;;;8.85;4.03;;;;;;;;;;5009090;28;20184;-78
2022/01/31 07:34:17;;;;;;;8.05;3.20;;;;;;;;;;5008745;28;20235;-76
2022/01/31 07:36:45;;;;;;;12.50;3.78;;;;;;;;;;5006574;28;20192;-75
2022/01/31 07:39:12;;;;;;;9.02;3.83;;;;;;;;;;5006506;28;20665;-76
2022/01/31 07:41:39;;;;;;;10.93;4.90;;;;;;;;;;5007886;28;20696;-78
2022/01/31 07:44:09;;;;;;;11.32;4.20;;;;;;;;;;5007893;28;20307;-78
2022/01/31 07:46:36;;;;;;;9.27;4.22;;;;;;;;;;5000185;28;20192;-79
2022/01/31 07:49:03;;;;;;;13.00;3.88;;;;;;;;;;5015996;28;20664;-81
2022/01/31 07:51:30;;;;;;;8.73;3.42;;;;;;;;;;5007437;28;20208;-80
2022/01/31 07:53:57;;;;;;;7.85;3.15;;;;;;;;;;5003027;28;20768;-81
2022/01/31 07:56:24;;;;;;;5.30;2.78;;;;;;;;;;5011143;28;20248;-78
2022/01/31 07:58:52;;;;;;;7.93;3.38;;;;;;;;;;5011965;28;20212;-79
2022/01/31 08:01:20;;;;;;;13.45;3.75;;;;;;;;;;5014888;28;20200;-81
2022/01/31 08:03:47;;;;;;;10.20;3.58;;;;;;;;;;5001102;28;20974;-80
2022/01/31 08:06:15;;;;;;;17.45;3.55;;;;;;;;;;5014336;28;20616;-78
2022/01/31 08:08:42;;;;;;;8.07;3.70;;;;;;;;;;5011597;28;20243;-79
2022/01/31 08:11:10;;;;;;;15.10;4.50;;;;;;;;;;5012217;28;20823;-81
2022/01/31 08:13:38;;;;;;;8.38;3.45;;;;;;;;;;5011334;28;20220;-79
2022/01/31 08:16:14;;;;;;;9.48;3.67;;;;;;;;;;4996370;28;20638;-81
2022/01/31 08:18:43;;;;;;;14.07;3.55;;;;;;;;;;5012154;28;20202;-80
2022/01/31 08:21:11;;;;;;;13.50;3.10;;;;;;;;;;5013367;28;20254;-78
2022/01/31 08:23:38;;;;;;;7.80;3.60;;;;;;;;;;5016277;28;20219;-80
2022/01/31 08:26:07;;;;;;;10.38;3.60;;;;;;;;;;5017125;28;20200;-79
2022/01/31 08:28:38;;;;;;;13.05;3.80;;;;;;;;;;5010309;28;20226;-76
2022/01/31 08:31:13;;;;;;;13.48;3.88;;;;;;;;;;5013182;28;20715;-77
2022/01/31 08:33:45;;;;;;;19.30;4.32;;;;;;;;;;5007264;28;20223;-76
2022/01/31 08:36:14;;;;;;;9.82;4.75;;;;;;;;;;5012700;28;20623;-76
2022/01/31 08:38:42;;;;;;;12.80;3.78;;;;;;;;;;5010919;28;20202;-77
2022/01/31 08:41:14;;;;;;;16.00;4.45;;;;;;;;;;5016019;28;20200;-76
2022/01/31 08:43:42;;;;;;;9.02;3.30;;;;;;;;;;5009708;28;20203;-79
2022/01/31 08:46:10;;;;;;;6.95;3.42;;;;;;;;;;5012069;28;20199;-76
2022/01/31 08:48:37;;;;;;;12.02;4.10;;;;;;;;;;5008861;28;20215;-75
2022/01/31 08:51:06;;;;;;;15.35;3.55;;;;;;;;;;5005117;28;20699;-77
2022/01/31 08:53:35;;;;;;;12.75;3.00;;;;;;;;;;5011743;28;20677;-76
2022/01/31 08:56:05;;;;;;;10.15;3.53;;;;;;;;;;5004641;28;20332;-77
2022/01/31 08:58:33;;;;;;;12.00;4.57;;;;;;;;;;5013276;28;20207;-79
2022/01/31 09:01:01;;;;;;;9.52;3.15;;;;;;;;;;5017203;28;20184;-79
2022/01/31 09:03:44;;;;;;;13.43;3.25;;;;;;;;;;5015288;28;20200;-76
2022/01/31 09:06:13;;;;;;;7.15;2.95;;;;;;;;;;5005779;28;20724;-77
2022/01/31 09:08:42;;;;;;;8.77;3.75;;;;;;;;;;5003402;28;20196;-77
2022/01/31 09:11:09;;;;;;;9.85;3.85;;;;;;;;;;5008968;28;20302;-78
2022/01/31 09:13:37;;;;;;;13.18;4.32;;;;;;;;;;5001338;28;20232;-77
2022/01/31 09:16:04;;;;;;;13.48;3.30;;;;;;;;;;5014274;28;20200;-75
2022/01/31 09:18:32;;;;;;;11.55;3.47;;;;;;;;;;5016426;28;20245;-80
2022/01/31 09:20:59;;;;;;;9.40;4.15;;;;;;;;;;5010473;28;20188;-79
2022/01/31 09:23:30;;;;;;;7.90;3.00;;;;;;;;;;5008860;28;20188;-76
2022/01/31 09:25:59;;;;;;;10.15;3.17;;;;;;;;;;5008150;28;20219;-78
2022/01/31 09:28:27;;;;;;;8.27;2.45;;;;;;;;;;5007925;28;20650;-80
2022/01/31 09:30:54;;;;;;;13.05;3.00;;;;;;;;;;5007175;28;20192;-77
2022/01/31 09:33:22;;;;;;;8.10;3.60;;;;;;;;;;5014552;28;20697;-77
2022/01/31 09:35:49;;;;;;;11.27;3.47;;;;;;;;;;5016217;28;20216;-75
2022/01/31 09:38:18;;;;;;;7.07;2.42;;;;;;;;;;5026134;28;20196;-77
2022/01/31 09:40:49;;;;;;;15.45;2.92;;;;;;;;;;5031740;28;20299;-77
2022/01/31 09:46:14;;;;;;;11.90;3.17;;;;;;;;;;5009313;28;20210;-77
2022/01/31 09:48:44;;;;;;;8.23;2.50;;;;;;;;;;5005917;28;20265;-76
2022/01/31 09:51:12;;;;;;;13.25;4.25;;;;;;;;;;5011859;28;20196;-76
2022/01/31 09:53:40;;;;;;;9.20;3.00;;;;;;;;;;5015269;28;20227;-76
2022/01/31 09:56:10;;;;;;;11.45;3.08;;;;;;;;;;5011008;28;20219;-76
2022/01/31 09:58:38;;;;;;;13.05;2.95;;;;;;;;;;5007556;28;20227;-76
2022/01/31 10:01:07;;;;;;;9.98;3.65;;;;;;;;;;5010690;28;20196;-75
2022/01/31 10:03:35;;;;;;;9.65;3.00;;;;;;;;;;5009912;28;20200;-76
2022/01/31 10:06:02;;;;;;;12.15;3.33;;;;;;;;;;5005479;28;20708;-77
2022/01/31 10:08:30;;;;;;;13.13;3.50;;;;;;;;;;5015450;28;20206;-76
2022/01/31 10:11:01;;;;;;;9.27;2.95;;;;;;;;;;5017161;28;20206;-76
2022/01/31 10:19:02;;;;;;;7.78;3.20;;;;;;;;;;5007168;28;20198;-76
2022/01/31 10:21:29;;;;;;;14.65;4.57;;;;;;;;;;5006625;28;20204;-76
2022/01/31 10:23:57;;;;;;;19.63;3.60;;;;;;;;;;5014844;28;20634;-79
2022/01/31 10:26:28;;;;;;;14.93;3.35;;;;;;;;;;5016709;28;20238;-77
2022/01/31 10:29:09;;;;;;;10.70;3.20;;;;;;;;;;5009224;28;20600;-75
2022/01/31 10:31:37;;;;;;;12.73;3.10;;;;;;;;;;4990807;28;20196;-77
2022/01/31 10:34:21;;;;;;;13.20;3.42;;;;;;;;;;4995869;28;20228;-78
2022/01/31 10:36:48;;;;;;;12.55;3.60;;;;;;;;;;5008262;28;20196;-77
2022/01/31 10:43:23;;;;;;;8.05;2.80;;;;;;;;;;5006006;28;20307;-77
2022/01/31 10:45:21;;;;;;;12.20;3.42;;;;;;;;;;5013901;28;20328;-77
2022/01/31 10:50:47;;;;;;;15.95;3.42;;;;;;;;;;5009723;28;20576;-76
2022/01/31 10:53:14;;;;;;;12.68;3.83;;;;;;;;;;5010402;28;20234;-76
2022/01/31 10:55:41;;;;;;;12.13;3.10;;;;;;;;;;5009766;28;20224;-79
2022/01/31 10:58:12;;;;;;;21.33;4.30;;;;;;;;;;5006047;28;20207;-77
2022/01/31 11:00:40;;;;;;;26.00;4.75;;;;;;;;;;5013274;28;20672;-77
2022/01/31 11:05:34;;;;;;;16.50;4.03;;;;;;;;;;5025637;28;20219;-77
2022/01/31 11:08:16;;;;;;;18.10;4.32;;;;;;;;;;5009279;28;20988;-76
2022/01/31 11:10:43;;;;;;;17.27;4.10;;;;;;;;;;4998886;28;20192;-78
2022/01/31 11:13:11;;;;;;;11.00;3.97;;;;;;;;;;5009728;28;20195;-79
2022/01/31 11:15:38;;;;;;;14.43;4.40;;;;;;;;;;5001557;28;20245;-78
2022/01/31 11:18:06;;;;;;;14.95;3.13;;;;;;;;;;5008063;28;20196;-79
2022/01/31 11:20:37;;;;;;;19.27;4.20;;;;;;;;;;5011969;28;20202;-76
2022/01/31 11:23:05;;;;;;;14.10;3.35;;;;;;;;;;5007978;28;20308;-76
2022/01/31 11:25:32;;;;;;;16.80;3.58;;;;;;;;;;5013194;28;20220;-76
2022/01/31 11:28:00;;;;;;;14.57;3.25;;;;;;;;;;5011198;28;20206;-77
2022/01/31 11:30:28;;;;;;;8.43;2.97;;;;;;;;;;5010827;28;20193;-78
2022/01/31 11:32:55;;;;;;;14.10;3.13;;;;;;;;;;5010335;28;20677;-76
2022/01/31 11:35:23;;;;;;;22.80;3.40;;;;;;;;;;5014250;28;20245;-77
2022/01/31 11:37:55;;;;;;;14.15;4.10;;;;;;;;;;5017890;28;20543;-76
2022/01/31 11:40:23;;;;;;;17.38;3.88;;;;;;;;;;5015400;28;20250;-76
2022/01/31 11:42:51;;;;;;;12.52;3.80;;;;;;;;;;5010538;28;20196;-76
2022/01/31 11:45:20;;;;;;;19.65;3.45;;;;;;;;;;5012146;28;20212;-76
2022/01/31 11:47:49;;;;;;;15.70;3.55;;;;;;;;;;5009057;28;20192;-78
2022/01/31 11:50:17;;;;;;;14.40;3.53;;;;;;;;;;5012209;28;20180;-77
2022/01/31 11:52:45;;;;;;;19.35;4.75;;;;;;;;;;5011292;28;20188;-78
2022/01/31 11:55:15;;;;;;;15.43;3.33;;;;;;;;;;5016597;28;20319;-77
2022/01/31 11:57:46;;;;;;;16.90;4.45;;;;;;;;;;5010168;28;20200;-76
2022/01/31 12:00:15;;;;;;;18.35;5.13;;;;;;;;;;5008798;28;20192;-76
2022/01/31 12:02:44;;;;;;;13.63;3.38;;;;;;;;;;5012851;28;20188;-76
2022/01/31 12:05:14;;;;;;;12.65;4.05;;;;;;;;;;5011645;28;20222;-76
2022/01/31 12:07:43;;;;;;;15.73;3.97;;;;;;;;;;5009814;28;20195;-77
2022/01/31 12:10:11;;;;;;;17.60;4.47;;;;;;;;;;5010147;28;20203;-79
2022/01/31 12:12:48;;;;;;;12.43;4.05;;;;;;;;;;5018073;28;20287;-82
2022/01/31 12:15:38;;;;;;;17.25;4.53;;;;;;;;;;5019033;28;20237;-84
2022/01/31 12:18:28;;;;;;;16.83;4.18;;;;;;;;;;5001548;28;20209;-80
2022/01/31 12:23:37;;;;;;;22.50;4.95;;;;;;;;;;4996007;28;20204;-81
2022/01/31 12:26:05;;;;;;;22.00;4.45;;;;;;;;;;5012971;28;20202;-79
2022/01/31 12:28:38;;;;;;;19.77;4.20;;;;;;;;;;5011580;28;20204;-78
2022/01/31 12:31:20;;;;;;;22.33;4.38;;;;;;;;;;5018676;28;20283;-79
2022/01/31 12:33:47;;;;;;;23.98;5.13;;;;;;;;;;5013286;28;20225;-82
2022/01/31 12:36:14;;;;;;;22.10;4.47;;;;;;;;;;5012264;28;20378;-80
2022/01/31 12:38:41;;;;;;;14.98;3.30;;;;;;;;;;5003663;28;20649;-83
2022/01/31 12:41:23;;;;;;;20.58;4.60;;;;;;;;;;4996195;28;20188;-79
2022/01/31 12:43:56;;;;;;;12.20;3.85;;;;;;;;;;5011909;28;20199;-78
2022/01/31 12:46:24;;;;;;;19.75;4.63;;;;;;;;;;5013219;28;20227;-78
2022/01/31 12:49:06;;;;;;;12.35;4.53;;;;;;;;;;5014884;28;20235;-81
2022/01/31 12:51:53;;;;;;;15.63;4.32;;;;;;;;;;5019105;28;20558;-79
2022/01/31 12:54:22;;;;;;;12.57;4.55;;;;;;;;;;5010408;28;20216;-78
2022/01/31 12:56:49;;;;;;;11.80;3.47;;;;;;;;;;5013004;28;20251;-79
2022/01/31 12:59:18;;;;;;;17.88;4.82;;;;;;;;;;5012185;28;20196;-78
2022/01/31 13:01:46;;;;;;;18.02;3.95;;;;;;;;;;5005753;28;20658;-79
2022/01/31 13:04:14;;;;;;;15.05;4.53;;;;;;;;;;5011212;28;20320;-75
2022/01/31 13:06:43;;;;;;;19.50;4.07;;;;;;;;;;5011704;28;20234;-75
2022/01/31 13:09:12;;;;;;;16.42;3.88;;;;;;;;;;5015784;28;20683;-75
2022/01/31 13:11:40;;;;;;;16.60;4.90;;;;;;;;;;5015832;28;20202;-77
2022/01/31 13:14:09;;;;;;;13.30;3.08;;;;;;;;;;5012107;28;20216;-81
2022/01/31 13:16:40;;;;;;;16.15;3.63;;;;;;;;;;5009596;28;20200;-80
2022/01/31 13:19:16;;;;;;;18.75;4.50;;;;;;;;;;5010066;28;20557;-78
2022/01/31 13:21:44;;;;;;;17.77;5.10;;;;;;;;;;5005376;28;20199;-79
2022/01/31 13:24:11;;;;;;;14.13;3.70;;;;;;;;;;4993630;28;20216;-82
2022/01/31 13:26:53;;;;;;;17.02;5.20;;;;;;;;;;5011702;28;20200;-77
2022/01/31 13:29:35;;;;;;;14.93;3.95;;;;;;;;;;5011375;28;20254;-78
2022/01/31 13:32:15;;;;;;;19.85;3.90;;;;;;;;;;5014232;28;20508;-77
2022/01/31 13:34:43;;;;;;;19.65;4.97;;;;;;;;;;5010596;28;20227;-78
2022/01/31 13:37:25;;;;;;;13.70;4.15;;;;;;;;;;5007087;28;20555;-77
2022/01/31 13:39:54;;;;;;;15.23;4.22;;;;;;;;;;5009573;28;20196;-77
2022/01/31 13:42:23;;;;;;;18.27;5.20;;;;;;;;;;4992090;28;20646;-79
2022/01/31 13:44:52;;;;;;;16.45;4.70;;;;;;;;;;4992814;28;20221;-78
2022/01/31 13:47:36;;;;;;;25.35;5.68;;;;;;;;;;5014118;28;20635;-82
2022/01/31 13:50:12;;;;;;;18.70;4.25;;;;;;;;;;5013952;28;20246;-80
2022/01/31 13:52:49;;;;;;;21.13;4.93;;;;;;;;;;5009715;28;20226;-79
2022/01/31 13:55:17;;;;;;;29.05;5.50;;;;;;;;;;5010454;28;20235;-79
2022/01/31 13:57:45;;;;;;;25.75;5.03;;;;;;;;;;5007979;28;20200;-78
2022/01/31 14:00:12;;;;;;;18.92;4.75;;;;;;;;;;5009269;28;20294;-78
2022/01/31 14:02:41;;;;;;;14.05;4.30;;;;;;;;;;5001436;28;20207;-79
2022/01/31 14:05:19;;;;;;;14.52;3.95;;;;;;;;;;5009924;28;20226;-82
2022/01/31 14:07:46;;;;;;;15.98;4.53;;;;;;;;;;5010811;28;20198;-78
2022/01/31 14:10:30;;;;;;;14.52;3.55;;;;;;;;;;5017086;28;20199;-79
2022/01/31 14:12:58;;;;;;;21.63;4.55;;;;;;;;;;5009532;28;20622;-84
2022/01/31 14:15:25;;;;;;;19.40;4.60;;;;;;;;;;4996672;28;20234;-77
2022/01/31 14:17:55;;;;;;;20.73;4.30;;;;;;;;;;4992019;28;20220;-80
2022/01/31 14:20:24;;;;;;;13.65;3.67;;;;;;;;;;5005085;28;20196;-80
2022/01/31 14:23:00;;;;;;;15.63;4.70;;;;;;;;;;5006310;28;20228;-80
2022/01/31 14:25:35;;;;;;;22.65;4.50;;;;;;;;;;5008643;28;20679;-81
2022/01/31 14:28:02;;;;;;;23.20;4.95;;;;;;;;;;5011938;28;20279;-83
2022/01/31 14:30:30;;;;;;;26.58;5.25;;;;;;;;;;5013757;28;20278;-78
2022/01/31 14:32:59;;;;;;;17.95;4.10;;;;;;;;;;5014811;28;20194;-84
2022/01/31 14:35:28;;;;;;;18.95;4.63;;;;;;;;;;5020194;28;20237;-84
2022/01/31 14:37:57;;;;;;;15.70;3.88;;;;;;;;;;5023611;28;20294;-80
2022/01/31 14:40:52;;;;;;;14.52;4.18;;;;;;;;;;5011198;28;20295;-81
2022/01/31 14:48:55;;;;;;;24.52;4.47;;;;;;;;;;5012745;28;20204;-78
2022/01/31 14:51:23;;;;;;;15.48;4.30;;;;;;;;;;5015451;28;20668;-81
2022/01/31 14:53:54;;;;;;;18.80;5.55;;;;;;;;;;5007359;28;20240;-83
2022/01/31 14:56:21;;;;;;;16.58;4.13;;;;;;;;;;5005799;28;20246;-83
2022/01/31 14:58:48;;;;;;;13.90;4.72;;;;;;;;;;5013297;28;20793;-83
2022/01/31 15:01:16;;;;;;;24.75;4.78;;;;;;;;;;5014915;28;20215;-86
2022/01/31 15:03:43;;;;;;;31.48;5.63;;;;;;;;;;4997245;28;20661;-80
2022/01/31 15:06:11;;;;;;;24.55;6.10;;;;;;;;;;5020659;28;20202;-83
2022/01/31 15:08:38;;;;;;;20.48;5.32;;;;;;;;;;5019399;28;20188;-81
2022/01/31 15:11:09;;;;;;;21.42;4.63;;;;;;;;;;5014321;28;20192;-79
2022/01/31 15:13:37;;;;;;;16.48;5.10;;;;;;;;;;5016294;28;20188;-79